sensor_id;sensor_type;location;lat;lon;timestamp;P1;durP1;ratioP1;P2;durP2;ratioP2
20306;SDS011;10312;52.434;13.206;2022-12-18T00:01:19;57.10;;;23.00;;
20306;SDS011;10312;52.434;13.206;2022-12-18T00:03:51;57.88;;;23.27;;
20306;SDS011;10312;52.434;13.206;2022-12-18T00:06:19;57.05;;;23.15;;
20306;SDS011;10312;52.434;13.206;2022-12-18T00:08:46;54.58;;;22.73;;
20306;SDS011;10312;52.434;13.206;2022-12-18T00:11:17;54.90;;;22.35;;
20306;SDS011;10312;52.434;13.206;2022-12-18T00:13:45;58.78;;;22.92;;
20306;SDS011;10312;52.434;13.206;2022-12-18T00:16:14;56.95;;;21.98;;
20306;SDS011;10312;52.434;13.206;2022-12-18T00:18:42;55.22;;;22.02;;
20306;SDS011;10312;52.434;13.206;2022-12-18T00:21:10;54.00;;;20.83;;
20306;SDS011;10312;52.434;13.206;2022-12-18T00:23:38;52.15;;;20.25;;
20306;SDS011;10312;52.434;13.206;2022-12-18T00:26:07;51.38;;;19.63;;
20306;SDS011;10312;52.434;13.206;2022-12-18T00:28:36;49.40;;;19.33;;
20306;SDS011;10312;52.434;13.206;2022-12-18T00:31:03;50.80;;;18.60;;
20306;SDS011;10312;52.434;13.206;2022-12-18T00:33:32;48.35;;;17.75;;
20306;SDS011;10312;52.434;13.206;2022-12-18T00:36:06;47.55;;;20.02;;
20306;SDS011;10312;52.434;13.206;2022-12-18T00:38:37;48.75;;;18.63;;
20306;SDS011;10312;52.434;13.206;2022-12-18T00:41:05;50.10;;;19.73;;
20306;SDS011;10312;52.434;13.206;2022-12-18T00:43:34;49.03;;;20.40;;
20306;SDS011;10312;52.434;13.206;2022-12-18T00:46:02;52.67;;;20.38;;
20306;SDS011;10312;52.434;13.206;2022-12-18T00:48:29;57.35;;;21.90;;
20306;SDS011;10312;52.434;13.206;2022-12-18T00:50:58;51.97;;;21.95;;
20306;SDS011;10312;52.434;13.206;2022-12-18T00:53:25;51.85;;;20.60;;
20306;SDS011;10312;52.434;13.206;2022-12-18T00:55:52;56.38;;;22.73;;
20306;SDS011;10312;52.434;13.206;2022-12-18T00:58:19;58.03;;;23.10;;
20306;SDS011;10312;52.434;13.206;2022-12-18T01:00:45;61.03;;;22.00;;
20306;SDS011;10312;52.434;13.206;2022-12-18T01:03:13;56.50;;;21.92;;
20306;SDS011;10312;52.434;13.206;2022-12-18T01:05:42;60.22;;;22.58;;
20306;SDS011;10312;52.434;13.206;2022-12-18T01:08:10;59.35;;;22.83;;
20306;SDS011;10312;52.434;13.206;2022-12-18T01:10:39;57.33;;;21.48;;
20306;SDS011;10312;52.434;13.206;2022-12-18T01:13:07;54.22;;;20.83;;
20306;SDS011;10312;52.434;13.206;2022-12-18T01:15:35;49.83;;;20.20;;
20306;SDS011;10312;52.434;13.206;2022-12-18T01:18:01;55.47;;;20.60;;
20306;SDS011;10312;52.434;13.206;2022-12-18T01:20:32;54.55;;;20.45;;
20306;SDS011;10312;52.434;13.206;2022-12-18T01:23:02;57.28;;;22.40;;
20306;SDS011;10312;52.434;13.206;2022-12-18T01:25:29;49.40;;;19.88;;
20306;SDS011;10312;52.434;13.206;2022-12-18T01:27:55;56.75;;;21.10;;
20306;SDS011;10312;52.434;13.206;2022-12-18T01:30:23;51.58;;;20.27;;
20306;SDS011;10312;52.434;13.206;2022-12-18T01:32:51;57.08;;;21.25;;
20306;SDS011;10312;52.434;13.206;2022-12-18T01:35:18;55.03;;;22.23;;
20306;SDS011;10312;52.434;13.206;2022-12-18T01:37:45;54.60;;;20.35;;
20306;SDS011;10312;52.434;13.206;2022-12-18T01:40:12;59.25;;;22.65;;
20306;SDS011;10312;52.434;13.206;2022-12-18T01:42:39;57.10;;;21.88;;
20306;SDS011;10312;52.434;13.206;2022-12-18T01:50:42;51.80;;;20.38;;
20306;SDS011;10312;52.434;13.206;2022-12-18T01:53:13;58.28;;;20.67;;
20306;SDS011;10312;52.434;13.206;2022-12-18T01:55:51;54.63;;;20.35;;
20306;SDS011;10312;52.434;13.206;2022-12-18T01:58:20;53.22;;;20.00;;
20306;SDS011;10312;52.434;13.206;2022-12-18T02:00:50;54.22;;;19.15;;
20306;SDS011;10312;52.434;13.206;2022-12-18T02:03:18;55.67;;;20.08;;
20306;SDS011;10312;52.434;13.206;2022-12-18T02:11:07;55.22;;;20.30;;
20306;SDS011;10312;52.434;13.206;2022-12-18T02:16:24;59.08;;;21.95;;
20306;SDS011;10312;52.434;13.206;2022-12-18T02:22:13;57.00;;;20.40;;
20306;SDS011;10312;52.434;13.206;2022-12-18T02:27:50;55.13;;;19.90;;
20306;SDS011;10312;52.434;13.206;2022-12-18T02:30:20;49.60;;;19.23;;
20306;SDS011;10312;52.434;13.206;2022-12-18T02:32:49;55.00;;;21.10;;
20306;SDS011;10312;52.434;13.206;2022-12-18T02:35:22;53.17;;;21.10;;
20306;SDS011;10312;52.434;13.206;2022-12-18T02:37:54;54.10;;;21.15;;
20306;SDS011;10312;52.434;13.206;2022-12-18T02:40:26;55.72;;;20.38;;
20306;SDS011;10312;52.434;13.206;2022-12-18T02:42:53;53.17;;;19.83;;
20306;SDS011;10312;52.434;13.206;2022-12-18T02:45:22;53.20;;;19.85;;
20306;SDS011;10312;52.434;13.206;2022-12-18T02:47:50;54.95;;;19.75;;
20306;SDS011;10312;52.434;13.206;2022-12-18T02:53:09;54.55;;;20.30;;
20306;SDS011;10312;52.434;13.206;2022-12-18T02:59:04;45.10;;;19.08;;
20306;SDS011;10312;52.434;13.206;2022-12-18T03:01:49;47.42;;;18.60;;
20306;SDS011;10312;52.434;13.206;2022-12-18T03:04:23;45.20;;;18.45;;
20306;SDS011;10312;52.434;13.206;2022-12-18T03:06:55;46.63;;;18.02;;
20306;SDS011;10312;52.434;13.206;2022-12-18T03:09:31;46.08;;;18.80;;
20306;SDS011;10312;52.434;13.206;2022-12-18T03:12:09;51.17;;;19.08;;
20306;SDS011;10312;52.434;13.206;2022-12-18T03:14:58;51.10;;;19.88;;
20306;SDS011;10312;52.434;13.206;2022-12-18T03:17:28;46.95;;;19.00;;
20306;SDS011;10312;52.434;13.206;2022-12-18T03:19:56;50.58;;;20.25;;
20306;SDS011;10312;52.434;13.206;2022-12-18T03:22:25;54.55;;;20.15;;
20306;SDS011;10312;52.434;13.206;2022-12-18T03:24:53;53.95;;;20.02;;
20306;SDS011;10312;52.434;13.206;2022-12-18T03:27:23;53.75;;;20.73;;
20306;SDS011;10312;52.434;13.206;2022-12-18T03:29:55;51.40;;;21.83;;
20306;SDS011;10312;52.434;13.206;2022-12-18T03:32:43;52.28;;;21.50;;
20306;SDS011;10312;52.434;13.206;2022-12-18T03:35:22;58.17;;;20.92;;
20306;SDS011;10312;52.434;13.206;2022-12-18T03:37:52;49.92;;;20.88;;
20306;SDS011;10312;52.434;13.206;2022-12-18T03:40:24;58.92;;;22.73;;
20306;SDS011;10312;52.434;13.206;2022-12-18T03:43:00;55.47;;;22.40;;
20306;SDS011;10312;52.434;13.206;2022-12-18T03:45:36;59.50;;;24.13;;
20306;SDS011;10312;52.434;13.206;2022-12-18T03:48:11;56.78;;;22.55;;
20306;SDS011;10312;52.434;13.206;2022-12-18T03:51:02;60.38;;;23.85;;
20306;SDS011;10312;52.434;13.206;2022-12-18T03:53:37;66.13;;;22.92;;
20306;SDS011;10312;52.434;13.206;2022-12-18T03:56:09;56.08;;;23.83;;
20306;SDS011;10312;52.434;13.206;2022-12-18T03:58:39;56.78;;;20.52;;
20306;SDS011;10312;52.434;13.206;2022-12-18T04:01:16;54.05;;;22.52;;
20306;SDS011;10312;52.434;13.206;2022-12-18T04:03:44;53.17;;;21.65;;
20306;SDS011;10312;52.434;13.206;2022-12-18T04:06:13;54.20;;;22.20;;
20306;SDS011;10312;52.434;13.206;2022-12-18T04:08:44;47.20;;;19.83;;
20306;SDS011;10312;52.434;13.206;2022-12-18T04:11:15;47.63;;;20.80;;
20306;SDS011;10312;52.434;13.206;2022-12-18T04:13:44;53.90;;;22.50;;
20306;SDS011;10312;52.434;13.206;2022-12-18T04:16:18;53.33;;;22.75;;
20306;SDS011;10312;52.434;13.206;2022-12-18T04:18:51;55.05;;;21.73;;
20306;SDS011;10312;52.434;13.206;2022-12-18T04:21:19;55.83;;;23.50;;
20306;SDS011;10312;52.434;13.206;2022-12-18T04:23:47;56.08;;;22.13;;
20306;SDS011;10312;52.434;13.206;2022-12-18T04:26:16;56.17;;;22.25;;
20306;SDS011;10312;52.434;13.206;2022-12-18T04:29:07;52.47;;;20.23;;
20306;SDS011;10312;52.434;13.206;2022-12-18T04:31:34;53.35;;;22.00;;
20306;SDS011;10312;52.434;13.206;2022-12-18T04:34:02;53.78;;;20.45;;
20306;SDS011;10312;52.434;13.206;2022-12-18T04:36:34;51.25;;;21.15;;
20306;SDS011;10312;52.434;13.206;2022-12-18T04:39:01;55.38;;;22.33;;
20306;SDS011;10312;52.434;13.206;2022-12-18T04:41:27;52.83;;;21.17;;
20306;SDS011;10312;52.434;13.206;2022-12-18T04:43:54;58.65;;;22.10;;
20306;SDS011;10312;52.434;13.206;2022-12-18T04:46:21;58.13;;;21.63;;
20306;SDS011;10312;52.434;13.206;2022-12-18T04:48:48;57.25;;;22.33;;
20306;SDS011;10312;52.434;13.206;2022-12-18T04:51:14;59.63;;;22.95;;
20306;SDS011;10312;52.434;13.206;2022-12-18T04:53:41;57.67;;;23.10;;
20306;SDS011;10312;52.434;13.206;2022-12-18T04:56:09;61.50;;;24.05;;
20306;SDS011;10312;52.434;13.206;2022-12-18T04:58:38;61.28;;;24.13;;
20306;SDS011;10312;52.434;13.206;2022-12-18T05:01:05;62.45;;;24.48;;
20306;SDS011;10312;52.434;13.206;2022-12-18T05:03:34;64.13;;;24.15;;
20306;SDS011;10312;52.434;13.206;2022-12-18T05:06:02;57.70;;;22.95;;
20306;SDS011;10312;52.434;13.206;2022-12-18T05:08:29;59.30;;;23.33;;
20306;SDS011;10312;52.434;13.206;2022-12-18T05:11:03;52.75;;;22.88;;
20306;SDS011;10312;52.434;13.206;2022-12-18T05:13:35;54.60;;;22.45;;
20306;SDS011;10312;52.434;13.206;2022-12-18T05:16:04;54.78;;;23.83;;
20306;SDS011;10312;52.434;13.206;2022-12-18T05:18:32;57.88;;;23.35;;
20306;SDS011;10312;52.434;13.206;2022-12-18T05:20:59;59.50;;;23.98;;
20306;SDS011;10312;52.434;13.206;2022-12-18T05:23:26;57.50;;;23.38;;
20306;SDS011;10312;52.434;13.206;2022-12-18T05:25:53;51.63;;;21.77;;
20306;SDS011;10312;52.434;13.206;2022-12-18T05:28:21;51.00;;;21.23;;
20306;SDS011;10312;52.434;13.206;2022-12-18T05:30:49;49.03;;;19.73;;
20306;SDS011;10312;52.434;13.206;2022-12-18T05:33:19;44.58;;;18.58;;
20306;SDS011;10312;52.434;13.206;2022-12-18T05:35:54;47.67;;;19.67;;
20306;SDS011;10312;52.434;13.206;2022-12-18T05:38:22;40.58;;;17.88;;
20306;SDS011;10312;52.434;13.206;2022-12-18T05:40:51;37.50;;;17.05;;
20306;SDS011;10312;52.434;13.206;2022-12-18T05:43:18;39.97;;;17.73;;
20306;SDS011;10312;52.434;13.206;2022-12-18T05:45:47;43.38;;;18.88;;
20306;SDS011;10312;52.434;13.206;2022-12-18T05:48:14;41.33;;;18.15;;
20306;SDS011;10312;52.434;13.206;2022-12-18T05:50:42;43.17;;;19.05;;
20306;SDS011;10312;52.434;13.206;2022-12-18T05:53:10;40.28;;;17.75;;
20306;SDS011;10312;52.434;13.206;2022-12-18T05:55:37;40.13;;;16.83;;
20306;SDS011;10312;52.434;13.206;2022-12-18T05:58:06;41.30;;;17.02;;
20306;SDS011;10312;52.434;13.206;2022-12-18T06:00:34;39.80;;;17.02;;
20306;SDS011;10312;52.434;13.206;2022-12-18T06:03:09;38.03;;;17.00;;
20306;SDS011;10312;52.434;13.206;2022-12-18T06:05:38;37.60;;;16.80;;
20306;SDS011;10312;52.434;13.206;2022-12-18T06:08:07;42.15;;;19.50;;
20306;SDS011;10312;52.434;13.206;2022-12-18T06:10:33;39.60;;;17.27;;
20306;SDS011;10312;52.434;13.206;2022-12-18T06:13:00;43.58;;;18.00;;
20306;SDS011;10312;52.434;13.206;2022-12-18T06:15:27;37.38;;;17.27;;
20306;SDS011;10312;52.434;13.206;2022-12-18T06:17:54;37.30;;;16.77;;
20306;SDS011;10312;52.434;13.206;2022-12-18T06:20:20;36.28;;;16.88;;
20306;SDS011;10312;52.434;13.206;2022-12-18T06:22:48;38.33;;;17.20;;
20306;SDS011;10312;52.434;13.206;2022-12-18T06:25:15;40.20;;;17.02;;
20306;SDS011;10312;52.434;13.206;2022-12-18T06:27:42;44.03;;;19.13;;
20306;SDS011;10312;52.434;13.206;2022-12-18T06:30:09;42.05;;;18.58;;
20306;SDS011;10312;52.434;13.206;2022-12-18T06:32:37;41.88;;;18.10;;
20306;SDS011;10312;52.434;13.206;2022-12-18T06:35:04;46.00;;;18.38;;
20306;SDS011;10312;52.434;13.206;2022-12-18T06:37:31;39.58;;;18.35;;
20306;SDS011;10312;52.434;13.206;2022-12-18T06:39:58;46.42;;;19.65;;
20306;SDS011;10312;52.434;13.206;2022-12-18T06:42:31;42.08;;;18.83;;
20306;SDS011;10312;52.434;13.206;2022-12-18T06:44:58;47.30;;;19.65;;
20306;SDS011;10312;52.434;13.206;2022-12-18T06:47:25;46.47;;;19.30;;
20306;SDS011;10312;52.434;13.206;2022-12-18T06:49:51;41.53;;;19.40;;
20306;SDS011;10312;52.434;13.206;2022-12-18T06:52:18;47.70;;;19.17;;
20306;SDS011;10312;52.434;13.206;2022-12-18T06:54:44;48.10;;;20.42;;
20306;SDS011;10312;52.434;13.206;2022-12-18T06:57:11;45.05;;;19.90;;
20306;SDS011;10312;52.434;13.206;2022-12-18T06:59:38;45.33;;;19.88;;
20306;SDS011;10312;52.434;13.206;2022-12-18T07:02:10;50.60;;;20.13;;
20306;SDS011;10312;52.434;13.206;2022-12-18T07:04:37;52.30;;;21.20;;
20306;SDS011;10312;52.434;13.206;2022-12-18T07:07:04;56.05;;;20.45;;
20306;SDS011;10312;52.434;13.206;2022-12-18T07:09:31;47.90;;;20.02;;
20306;SDS011;10312;52.434;13.206;2022-12-18T07:11:57;51.97;;;21.52;;
20306;SDS011;10312;52.434;13.206;2022-12-18T07:14:24;50.65;;;21.20;;
20306;SDS011;10312;52.434;13.206;2022-12-18T07:16:51;44.78;;;20.50;;
20306;SDS011;10312;52.434;13.206;2022-12-18T07:19:18;52.08;;;22.25;;
20306;SDS011;10312;52.434;13.206;2022-12-18T07:21:44;51.50;;;21.20;;
20306;SDS011;10312;52.434;13.206;2022-12-18T07:24:12;50.10;;;21.10;;
20306;SDS011;10312;52.434;13.206;2022-12-18T07:26:39;52.05;;;21.20;;
20306;SDS011;10312;52.434;13.206;2022-12-18T07:29:06;45.47;;;20.10;;
20306;SDS011;10312;52.434;13.206;2022-12-18T07:31:32;48.78;;;21.77;;
20306;SDS011;10312;52.434;13.206;2022-12-18T07:34:02;51.13;;;20.67;;
20306;SDS011;10312;52.434;13.206;2022-12-18T07:36:29;46.53;;;20.73;;
20306;SDS011;10312;52.434;13.206;2022-12-18T07:38:55;45.65;;;19.73;;
20306;SDS011;10312;52.434;13.206;2022-12-18T07:41:25;46.63;;;20.02;;
20306;SDS011;10312;52.434;13.206;2022-12-18T07:43:55;49.65;;;20.35;;
20306;SDS011;10312;52.434;13.206;2022-12-18T07:46:22;49.03;;;21.20;;
20306;SDS011;10312;52.434;13.206;2022-12-18T07:48:49;46.63;;;20.13;;
20306;SDS011;10312;52.434;13.206;2022-12-18T07:51:16;47.63;;;20.40;;
20306;SDS011;10312;52.434;13.206;2022-12-18T07:53:43;47.00;;;19.67;;
20306;SDS011;10312;52.434;13.206;2022-12-18T07:56:11;50.70;;;20.50;;
20306;SDS011;10312;52.434;13.206;2022-12-18T07:58:56;55.10;;;22.42;;
20306;SDS011;10312;52.434;13.206;2022-12-18T08:01:24;59.35;;;22.90;;
20306;SDS011;10312;52.434;13.206;2022-12-18T08:03:51;62.97;;;23.80;;
20306;SDS011;10312;52.434;13.206;2022-12-18T08:06:18;67.55;;;26.63;;
20306;SDS011;10312;52.434;13.206;2022-12-18T08:08:50;72.93;;;27.13;;
20306;SDS011;10312;52.434;13.206;2022-12-18T08:11:19;69.97;;;26.88;;
20306;SDS011;10312;52.434;13.206;2022-12-18T08:13:46;71.63;;;27.33;;
20306;SDS011;10312;52.434;13.206;2022-12-18T08:16:13;73.75;;;28.45;;
20306;SDS011;10312;52.434;13.206;2022-12-18T08:18:40;72.97;;;29.45;;
20306;SDS011;10312;52.434;13.206;2022-12-18T08:21:14;72.63;;;28.70;;
20306;SDS011;10312;52.434;13.206;2022-12-18T08:23:42;67.90;;;27.10;;
20306;SDS011;10312;52.434;13.206;2022-12-18T08:26:09;67.97;;;26.17;;
20306;SDS011;10312;52.434;13.206;2022-12-18T08:28:37;65.63;;;25.63;;
20306;SDS011;10312;52.434;13.206;2022-12-18T08:31:08;58.53;;;24.33;;
20306;SDS011;10312;52.434;13.206;2022-12-18T08:33:35;58.97;;;22.98;;
20306;SDS011;10312;52.434;13.206;2022-12-18T08:36:03;56.20;;;23.55;;
20306;SDS011;10312;52.434;13.206;2022-12-18T08:38:31;55.45;;;23.63;;
20306;SDS011;10312;52.434;13.206;2022-12-18T08:40:58;54.38;;;22.70;;
20306;SDS011;10312;52.434;13.206;2022-12-18T08:43:29;55.22;;;22.23;;
20306;SDS011;10312;52.434;13.206;2022-12-18T08:46:14;54.85;;;23.13;;
20306;SDS011;10312;52.434;13.206;2022-12-18T08:48:41;53.83;;;23.45;;
20306;SDS011;10312;52.434;13.206;2022-12-18T08:51:08;54.10;;;21.45;;
20306;SDS011;10312;52.434;13.206;2022-12-18T08:53:36;54.22;;;22.10;;
20306;SDS011;10312;52.434;13.206;2022-12-18T08:56:04;54.88;;;23.15;;
20306;SDS011;10312;52.434;13.206;2022-12-18T08:58:31;51.55;;;21.92;;
20306;SDS011;10312;52.434;13.206;2022-12-18T09:01:01;49.42;;;20.30;;
20306;SDS011;10312;52.434;13.206;2022-12-18T09:03:29;53.28;;;22.33;;
20306;SDS011;10312;52.434;13.206;2022-12-18T09:05:56;47.80;;;20.35;;
20306;SDS011;10312;52.434;13.206;2022-12-18T09:08:23;48.05;;;21.63;;
20306;SDS011;10312;52.434;13.206;2022-12-18T09:10:49;53.90;;;21.10;;
20306;SDS011;10312;52.434;13.206;2022-12-18T09:13:17;51.50;;;21.40;;
20306;SDS011;10312;52.434;13.206;2022-12-18T09:15:44;49.35;;;20.13;;
20306;SDS011;10312;52.434;13.206;2022-12-18T09:18:12;49.80;;;21.13;;
20306;SDS011;10312;52.434;13.206;2022-12-18T09:20:43;47.22;;;19.20;;
20306;SDS011;10312;52.434;13.206;2022-12-18T09:23:10;46.55;;;20.83;;
20306;SDS011;10312;52.434;13.206;2022-12-18T09:25:37;44.92;;;19.42;;
20306;SDS011;10312;52.434;13.206;2022-12-18T09:28:05;45.92;;;19.92;;
20306;SDS011;10312;52.434;13.206;2022-12-18T09:30:39;48.50;;;19.58;;
20306;SDS011;10312;52.434;13.206;2022-12-18T09:33:07;47.65;;;20.42;;
20306;SDS011;10312;52.434;13.206;2022-12-18T09:35:40;44.35;;;19.20;;
20306;SDS011;10312;52.434;13.206;2022-12-18T09:38:09;44.55;;;20.45;;
20306;SDS011;10312;52.434;13.206;2022-12-18T09:40:42;47.55;;;20.45;;
20306;SDS011;10312;52.434;13.206;2022-12-18T09:43:17;47.03;;;19.75;;
20306;SDS011;10312;52.434;13.206;2022-12-18T09:45:47;44.55;;;19.42;;
20306;SDS011;10312;52.434;13.206;2022-12-18T09:48:21;43.72;;;18.10;;
20306;SDS011;10312;52.434;13.206;2022-12-18T09:50:52;47.90;;;19.38;;
20306;SDS011;10312;52.434;13.206;2022-12-18T09:53:23;42.30;;;19.27;;
20306;SDS011;10312;52.434;13.206;2022-12-18T09:55:51;47.88;;;19.15;;
20306;SDS011;10312;52.434;13.206;2022-12-18T09:58:33;44.92;;;19.23;;
20306;SDS011;10312;52.434;13.206;2022-12-18T10:01:10;45.00;;;19.02;;
20306;SDS011;10312;52.434;13.206;2022-12-18T10:03:38;41.17;;;18.88;;
20306;SDS011;10312;52.434;13.206;2022-12-18T10:14:10;46.42;;;19.77;;
20306;SDS011;10312;52.434;13.206;2022-12-18T10:27:42;44.85;;;20.83;;
20306;SDS011;10312;52.434;13.206;2022-12-18T10:30:18;48.35;;;20.85;;
20306;SDS011;10312;52.434;13.206;2022-12-18T10:32:50;50.97;;;20.50;;
20306;SDS011;10312;52.434;13.206;2022-12-18T10:35:22;43.90;;;19.98;;
20306;SDS011;10312;52.434;13.206;2022-12-18T10:38:01;48.47;;;20.55;;
20306;SDS011;10312;52.434;13.206;2022-12-18T10:40:30;42.17;;;19.25;;
20306;SDS011;10312;52.434;13.206;2022-12-18T10:43:42;45.42;;;19.70;;
20306;SDS011;10312;52.434;13.206;2022-12-18T10:45:58;45.63;;;20.50;;
20306;SDS011;10312;52.434;13.206;2022-12-18T10:48:28;49.60;;;20.48;;
20306;SDS011;10312;52.434;13.206;2022-12-18T10:50:56;47.00;;;21.20;;
20306;SDS011;10312;52.434;13.206;2022-12-18T10:53:40;45.15;;;20.10;;
20306;SDS011;10312;52.434;13.206;2022-12-18T10:56:08;43.95;;;19.42;;
20306;SDS011;10312;52.434;13.206;2022-12-18T10:58:36;40.78;;;19.05;;
20306;SDS011;10312;52.434;13.206;2022-12-18T11:03:41;45.97;;;19.13;;
20306;SDS011;10312;52.434;13.206;2022-12-18T11:06:29;40.25;;;18.35;;
20306;SDS011;10312;52.434;13.206;2022-12-18T11:09:01;38.20;;;17.67;;
20306;SDS011;10312;52.434;13.206;2022-12-18T11:11:39;39.42;;;17.90;;
20306;SDS011;10312;52.434;13.206;2022-12-18T11:14:19;42.20;;;18.70;;
20306;SDS011;10312;52.434;13.206;2022-12-18T11:16:49;35.90;;;16.92;;
20306;SDS011;10312;52.434;13.206;2022-12-18T11:19:37;37.03;;;15.23;;
20306;SDS011;10312;52.434;13.206;2022-12-18T11:22:19;36.10;;;16.58;;
20306;SDS011;10312;52.434;13.206;2022-12-18T11:24:58;33.67;;;16.55;;
20306;SDS011;10312;52.434;13.206;2022-12-18T11:27:57;38.75;;;16.60;;
20306;SDS011;10312;52.434;13.206;2022-12-18T11:30:27;34.60;;;16.58;;
20306;SDS011;10312;52.434;13.206;2022-12-18T11:38:18;38.85;;;17.05;;
20306;SDS011;10312;52.434;13.206;2022-12-18T11:40:47;33.78;;;16.55;;
20306;SDS011;10312;52.434;13.206;2022-12-18T11:43:32;35.58;;;16.77;;
20306;SDS011;10312;52.434;13.206;2022-12-18T11:46:06;36.33;;;17.38;;
20306;SDS011;10312;52.434;13.206;2022-12-18T11:48:45;39.47;;;16.70;;
20306;SDS011;10312;52.434;13.206;2022-12-18T11:51:22;35.92;;;16.95;;
20306;SDS011;10312;52.434;13.206;2022-12-18T11:53:53;35.88;;;15.82;;
20306;SDS011;10312;52.434;13.206;2022-12-18T11:56:35;35.88;;;16.60;;
20306;SDS011;10312;52.434;13.206;2022-12-18T11:59:08;33.85;;;16.20;;
20306;SDS011;10312;52.434;13.206;2022-12-18T12:01:50;37.00;;;17.23;;
20306;SDS011;10312;52.434;13.206;2022-12-18T12:04:40;39.05;;;18.80;;
20306;SDS011;10312;52.434;13.206;2022-12-18T12:07:20;37.33;;;17.45;;
20306;SDS011;10312;52.434;13.206;2022-12-18T12:12:58;39.42;;;19.20;;
20306;SDS011;10312;52.434;13.206;2022-12-18T12:18:58;30.48;;;15.70;;
20306;SDS011;10312;52.434;13.206;2022-12-18T12:21:39;32.60;;;16.25;;
20306;SDS011;10312;52.434;13.206;2022-12-18T12:26:52;31.38;;;16.20;;
20306;SDS011;10312;52.434;13.206;2022-12-18T12:30:22;36.05;;;15.65;;
20306;SDS011;10312;52.434;13.206;2022-12-18T12:38:19;32.60;;;16.65;;
20306;SDS011;10312;52.434;13.206;2022-12-18T12:40:54;37.10;;;17.02;;
20306;SDS011;10312;52.434;13.206;2022-12-18T12:43:31;35.13;;;15.88;;
20306;SDS011;10312;52.434;13.206;2022-12-18T12:46:05;36.92;;;15.73;;
20306;SDS011;10312;52.434;13.206;2022-12-18T12:48:45;33.25;;;16.42;;
20306;SDS011;10312;52.434;13.206;2022-12-18T12:51:34;35.10;;;15.35;;
20306;SDS011;10312;52.434;13.206;2022-12-18T12:54:04;34.88;;;15.73;;
20306;SDS011;10312;52.434;13.206;2022-12-18T12:56:40;30.67;;;15.07;;
20306;SDS011;10312;52.434;13.206;2022-12-18T13:01:49;32.67;;;16.73;;
20306;SDS011;10312;52.434;13.206;2022-12-18T13:04:39;32.10;;;15.90;;
20306;SDS011;10312;52.434;13.206;2022-12-18T13:07:15;33.45;;;15.90;;
20306;SDS011;10312;52.434;13.206;2022-12-18T13:15:25;30.52;;;15.52;;
20306;SDS011;10312;52.434;13.206;2022-12-18T13:23:31;30.73;;;13.57;;
20306;SDS011;10312;52.434;13.206;2022-12-18T13:31:13;31.35;;;13.95;;
20306;SDS011;10312;52.434;13.206;2022-12-18T13:33:42;28.85;;;14.50;;
20306;SDS011;10312;52.434;13.206;2022-12-18T13:36:31;26.95;;;13.35;;
20306;SDS011;10312;52.434;13.206;2022-12-18T13:39:09;30.48;;;14.90;;
20306;SDS011;10312;52.434;13.206;2022-12-18T13:44:32;26.52;;;13.93;;
20306;SDS011;10312;52.434;13.206;2022-12-18T13:49:58;25.33;;;12.90;;
20306;SDS011;10312;52.434;13.206;2022-12-18T13:52:27;24.33;;;13.00;;
20306;SDS011;10312;52.434;13.206;2022-12-18T13:54:56;30.40;;;14.40;;
20306;SDS011;10312;52.434;13.206;2022-12-18T13:57:25;29.58;;;15.05;;
20306;SDS011;10312;52.434;13.206;2022-12-18T14:00:16;26.52;;;14.25;;
20306;SDS011;10312;52.434;13.206;2022-12-18T14:02:46;33.72;;;15.63;;
20306;SDS011;10312;52.434;13.206;2022-12-18T14:05:22;34.00;;;16.38;;
20306;SDS011;10312;52.434;13.206;2022-12-18T14:07:53;33.33;;;17.27;;
20306;SDS011;10312;52.434;13.206;2022-12-18T14:10:21;30.63;;;15.20;;
20306;SDS011;10312;52.434;13.206;2022-12-18T14:13:09;29.25;;;15.45;;
20306;SDS011;10312;52.434;13.206;2022-12-18T14:15:40;26.00;;;13.80;;
20306;SDS011;10312;52.434;13.206;2022-12-18T14:20:47;32.80;;;16.38;;
20306;SDS011;10312;52.434;13.206;2022-12-18T14:23:29;32.80;;;17.00;;
20306;SDS011;10312;52.434;13.206;2022-12-18T14:25:57;31.50;;;16.00;;
20306;SDS011;10312;52.434;13.206;2022-12-18T14:28:30;31.92;;;16.65;;
20306;SDS011;10312;52.434;13.206;2022-12-18T14:30:57;35.30;;;17.67;;
20306;SDS011;10312;52.434;13.206;2022-12-18T14:33:25;36.83;;;18.33;;
20306;SDS011;10312;52.434;13.206;2022-12-18T14:40:59;38.13;;;19.48;;
20306;SDS011;10312;52.434;13.206;2022-12-18T14:43:28;44.10;;;18.67;;
20306;SDS011;10312;52.434;13.206;2022-12-18T14:45:56;50.13;;;20.83;;
20306;SDS011;10312;52.434;13.206;2022-12-18T14:48:44;42.75;;;20.67;;
20306;SDS011;10312;52.434;13.206;2022-12-18T14:53:40;51.28;;;23.35;;
20306;SDS011;10312;52.434;13.206;2022-12-18T14:58:50;53.70;;;23.58;;
20306;SDS011;10312;52.434;13.206;2022-12-18T15:01:20;52.72;;;24.00;;
20306;SDS011;10312;52.434;13.206;2022-12-18T15:03:52;57.60;;;25.75;;
20306;SDS011;10312;52.434;13.206;2022-12-18T15:06:24;54.55;;;24.67;;
20306;SDS011;10312;52.434;13.206;2022-12-18T15:08:53;61.63;;;26.15;;
20306;SDS011;10312;52.434;13.206;2022-12-18T15:11:25;59.95;;;26.17;;
20306;SDS011;10312;52.434;13.206;2022-12-18T15:13:53;62.05;;;26.88;;
20306;SDS011;10312;52.434;13.206;2022-12-18T15:16:22;62.80;;;26.70;;
20306;SDS011;10312;52.434;13.206;2022-12-18T15:18:49;68.22;;;28.45;;
20306;SDS011;10312;52.434;13.206;2022-12-18T15:21:17;62.47;;;27.17;;
20306;SDS011;10312;52.434;13.206;2022-12-18T15:23:49;61.63;;;27.98;;
20306;SDS011;10312;52.434;13.206;2022-12-18T15:26:19;63.97;;;28.23;;
20306;SDS011;10312;52.434;13.206;2022-12-18T15:28:54;60.88;;;27.63;;
20306;SDS011;10312;52.434;13.206;2022-12-18T15:31:23;60.55;;;27.50;;
20306;SDS011;10312;52.434;13.206;2022-12-18T15:34:12;65.32;;;28.60;;
20306;SDS011;10312;52.434;13.206;2022-12-18T15:36:45;57.75;;;26.58;;
20306;SDS011;10312;52.434;13.206;2022-12-18T15:39:12;50.30;;;23.52;;
20306;SDS011;10312;52.434;13.206;2022-12-18T15:41:39;47.78;;;23.55;;
20306;SDS011;10312;52.434;13.206;2022-12-18T15:44:20;48.22;;;23.13;;
20306;SDS011;10312;52.434;13.206;2022-12-18T15:46:49;51.42;;;23.98;;
20306;SDS011;10312;52.434;13.206;2022-12-18T15:49:16;47.03;;;23.90;;
20306;SDS011;10312;52.434;13.206;2022-12-18T15:51:42;50.30;;;25.15;;
20306;SDS011;10312;52.434;13.206;2022-12-18T15:54:11;52.10;;;24.77;;
20306;SDS011;10312;52.434;13.206;2022-12-18T15:56:40;48.22;;;22.70;;
20306;SDS011;10312;52.434;13.206;2022-12-18T15:59:26;47.75;;;23.35;;
20306;SDS011;10312;52.434;13.206;2022-12-18T16:01:56;48.13;;;22.08;;
20306;SDS011;10312;52.434;13.206;2022-12-18T16:04:23;49.75;;;23.27;;
20306;SDS011;10312;52.434;13.206;2022-12-18T16:06:51;46.13;;;22.73;;
20306;SDS011;10312;52.434;13.206;2022-12-18T16:09:40;43.10;;;21.77;;
20306;SDS011;10312;52.434;13.206;2022-12-18T16:12:17;42.08;;;22.13;;
20306;SDS011;10312;52.434;13.206;2022-12-18T16:14:45;43.65;;;22.02;;
20306;SDS011;10312;52.434;13.206;2022-12-18T16:17:13;47.88;;;22.63;;